sensor_id;sensor_type;location;lat;lon;timestamp;P1;durP1;ratioP1;P2;durP2;ratioP2
26620;SDS011;14253;44.840;10.444;2022-12-29T00:02:11;115.38;;;45.53;;
26620;SDS011;14253;44.840;10.444;2022-12-29T00:04:38;105.88;;;48.40;;
26620;SDS011;14253;44.840;10.444;2022-12-29T00:07:04;110.55;;;49.38;;
26620;SDS011;14253;44.840;10.444;2022-12-29T00:09:30;114.55;;;49.45;;
26620;SDS011;14253;44.840;10.444;2022-12-29T00:11:57;114.25;;;46.40;;
26620;SDS011;14253;44.840;10.444;2022-12-29T00:14:23;116.20;;;47.75;;
26620;SDS011;14253;44.840;10.444;2022-12-29T00:17:08;125.43;;;49.70;;
26620;SDS011;14253;44.840;10.444;2022-12-29T00:19:34;110.13;;;47.90;;
26620;SDS011;14253;44.840;10.444;2022-12-29T00:22:18;120.30;;;47.58;;
26620;SDS011;14253;44.840;10.444;2022-12-29T00:25:03;117.18;;;49.10;;
26620;SDS011;14253;44.840;10.444;2022-12-29T00:27:30;121.10;;;49.00;;
26620;SDS011;14253;44.840;10.444;2022-12-29T00:30:17;123.20;;;49.10;;
26620;SDS011;14253;44.840;10.444;2022-12-29T00:33:14;115.22;;;47.55;;
26620;SDS011;14253;44.840;10.444;2022-12-29T00:36:07;124.80;;;50.80;;
26620;SDS011;14253;44.840;10.444;2022-12-29T00:38:39;125.00;;;51.08;;
26620;SDS011;14253;44.840;10.444;2022-12-29T00:41:25;126.40;;;50.60;;
26620;SDS011;14253;44.840;10.444;2022-12-29T00:44:10;135.68;;;51.47;;
26620;SDS011;14253;44.840;10.444;2022-12-29T00:46:39;134.75;;;52.00;;
26620;SDS011;14253;44.840;10.444;2022-12-29T00:49:07;120.93;;;50.83;;
26620;SDS011;14253;44.840;10.444;2022-12-29T00:51:54;132.88;;;52.17;;
26620;SDS011;14253;44.840;10.444;2022-12-29T00:54:21;135.57;;;52.17;;
26620;SDS011;14253;44.840;10.444;2022-12-29T00:56:47;137.20;;;51.42;;
26620;SDS011;14253;44.840;10.444;2022-12-29T00:59:16;135.93;;;52.20;;
26620;SDS011;14253;44.840;10.444;2022-12-29T01:01:44;152.18;;;54.60;;
26620;SDS011;14253;44.840;10.444;2022-12-29T01:04:11;136.32;;;54.00;;
26620;SDS011;14253;44.840;10.444;2022-12-29T01:06:38;145.85;;;54.78;;
26620;SDS011;14253;44.840;10.444;2022-12-29T01:09:06;132.60;;;51.75;;
26620;SDS011;14253;44.840;10.444;2022-12-29T01:11:52;117.50;;;48.58;;
26620;SDS011;14253;44.840;10.444;2022-12-29T01:14:18;120.88;;;46.60;;
26620;SDS011;14253;44.840;10.444;2022-12-29T01:16:45;141.57;;;53.53;;
26620;SDS011;14253;44.840;10.444;2022-12-29T01:19:11;130.05;;;52.63;;
26620;SDS011;14253;44.840;10.444;2022-12-29T01:21:38;136.75;;;51.05;;
26620;SDS011;14253;44.840;10.444;2022-12-29T01:24:04;131.27;;;52.47;;
26620;SDS011;14253;44.840;10.444;2022-12-29T01:26:30;139.70;;;50.38;;
26620;SDS011;14253;44.840;10.444;2022-12-29T01:28:56;131.63;;;51.15;;
26620;SDS011;14253;44.840;10.444;2022-12-29T01:31:22;113.57;;;47.08;;
26620;SDS011;14253;44.840;10.444;2022-12-29T01:33:48;128.05;;;51.10;;
26620;SDS011;14253;44.840;10.444;2022-12-29T01:36:15;130.13;;;51.95;;
26620;SDS011;14253;44.840;10.444;2022-12-29T01:38:42;147.48;;;54.33;;
26620;SDS011;14253;44.840;10.444;2022-12-29T01:41:09;123.82;;;49.85;;
26620;SDS011;14253;44.840;10.444;2022-12-29T01:43:41;145.07;;;53.70;;
26620;SDS011;14253;44.840;10.444;2022-12-29T01:48:50;148.88;;;54.38;;
26620;SDS011;14253;44.840;10.444;2022-12-29T01:51:29;151.73;;;55.63;;
26620;SDS011;14253;44.840;10.444;2022-12-29T01:53:58;137.50;;;54.70;;
26620;SDS011;14253;44.840;10.444;2022-12-29T01:56:26;133.45;;;52.90;;
26620;SDS011;14253;44.840;10.444;2022-12-29T01:59:02;142.82;;;52.50;;
26620;SDS011;14253;44.840;10.444;2022-12-29T02:01:32;146.35;;;54.88;;
26620;SDS011;14253;44.840;10.444;2022-12-29T02:04:00;140.77;;;53.53;;
26620;SDS011;14253;44.840;10.444;2022-12-29T02:06:31;134.10;;;54.75;;
26620;SDS011;14253;44.840;10.444;2022-12-29T02:09:03;139.52;;;56.55;;
26620;SDS011;14253;44.840;10.444;2022-12-29T02:11:29;143.60;;;56.15;;
26620;SDS011;14253;44.840;10.444;2022-12-29T02:13:56;142.75;;;53.65;;
26620;SDS011;14253;44.840;10.444;2022-12-29T02:19:41;145.57;;;56.03;;
26620;SDS011;14253;44.840;10.444;2022-12-29T02:22:27;145.35;;;55.85;;
26620;SDS011;14253;44.840;10.444;2022-12-29T02:34:00;130.70;;;54.03;;
26620;SDS011;14253;44.840;10.444;2022-12-29T02:39:27;127.75;;;51.95;;
26620;SDS011;14253;44.840;10.444;2022-12-29T02:42:07;151.18;;;58.30;;
26620;SDS011;14253;44.840;10.444;2022-12-29T02:44:52;138.02;;;52.70;;
26620;SDS011;14253;44.840;10.444;2022-12-29T02:47:39;150.82;;;55.83;;
26620;SDS011;14253;44.840;10.444;2022-12-29T02:50:21;144.77;;;55.92;;
26620;SDS011;14253;44.840;10.444;2022-12-29T02:52:59;139.63;;;53.60;;
26620;SDS011;14253;44.840;10.444;2022-12-29T02:55:27;157.25;;;58.38;;
26620;SDS011;14253;44.840;10.444;2022-12-29T02:58:09;149.20;;;56.60;;
26620;SDS011;14253;44.840;10.444;2022-12-29T03:03:44;144.73;;;54.15;;
26620;SDS011;14253;44.840;10.444;2022-12-29T03:06:40;145.73;;;54.97;;
26620;SDS011;14253;44.840;10.444;2022-12-29T03:12:23;139.88;;;53.30;;
26620;SDS011;14253;44.840;10.444;2022-12-29T03:15:15;138.80;;;55.80;;
26620;SDS011;14253;44.840;10.444;2022-12-29T03:18:15;146.02;;;56.58;;
26620;SDS011;14253;44.840;10.444;2022-12-29T03:20:55;141.75;;;54.28;;
26620;SDS011;14253;44.840;10.444;2022-12-29T03:23:28;148.30;;;55.63;;
26620;SDS011;14253;44.840;10.444;2022-12-29T03:25:57;141.88;;;55.38;;
26620;SDS011;14253;44.840;10.444;2022-12-29T03:28:37;138.63;;;56.72;;
26620;SDS011;14253;44.840;10.444;2022-12-29T03:31:08;154.10;;;57.85;;
26620;SDS011;14253;44.840;10.444;2022-12-29T03:33:38;144.40;;;57.10;;
26620;SDS011;14253;44.840;10.444;2022-12-29T03:36:07;140.85;;;53.88;;
26620;SDS011;14253;44.840;10.444;2022-12-29T03:38:45;130.70;;;52.50;;
26620;SDS011;14253;44.840;10.444;2022-12-29T03:43:44;148.73;;;54.10;;
26620;SDS011;14253;44.840;10.444;2022-12-29T03:46:11;138.45;;;55.42;;
26620;SDS011;14253;44.840;10.444;2022-12-29T03:48:39;147.95;;;57.15;;
26620;SDS011;14253;44.840;10.444;2022-12-29T03:51:05;149.80;;;56.35;;
26620;SDS011;14253;44.840;10.444;2022-12-29T03:53:31;155.63;;;58.17;;
26620;SDS011;14253;44.840;10.444;2022-12-29T03:55:57;147.45;;;57.10;;
26620;SDS011;14253;44.840;10.444;2022-12-29T03:58:23;148.15;;;57.92;;
26620;SDS011;14253;44.840;10.444;2022-12-29T04:00:59;153.05;;;57.90;;
26620;SDS011;14253;44.840;10.444;2022-12-29T04:03:25;147.60;;;54.83;;
26620;SDS011;14253;44.840;10.444;2022-12-29T04:05:51;152.38;;;57.20;;
26620;SDS011;14253;44.840;10.444;2022-12-29T04:08:17;140.57;;;57.75;;
26620;SDS011;14253;44.840;10.444;2022-12-29T04:10:43;152.75;;;57.70;;
26620;SDS011;14253;44.840;10.444;2022-12-29T04:13:11;152.35;;;57.05;;
26620;SDS011;14253;44.840;10.444;2022-12-29T04:15:37;155.93;;;56.30;;
26620;SDS011;14253;44.840;10.444;2022-12-29T04:18:04;144.45;;;56.70;;
26620;SDS011;14253;44.840;10.444;2022-12-29T04:20:31;134.50;;;54.75;;
26620;SDS011;14253;44.840;10.444;2022-12-29T04:23:16;140.18;;;57.70;;
26620;SDS011;14253;44.840;10.444;2022-12-29T04:25:44;150.15;;;55.65;;
26620;SDS011;14253;44.840;10.444;2022-12-29T04:28:13;160.25;;;57.75;;
26620;SDS011;14253;44.840;10.444;2022-12-29T04:30:58;134.00;;;55.42;;
26620;SDS011;14253;44.840;10.444;2022-12-29T04:33:32;145.35;;;55.70;;
26620;SDS011;14253;44.840;10.444;2022-12-29T04:35:58;143.80;;;55.00;;
26620;SDS011;14253;44.840;10.444;2022-12-29T04:38:24;131.45;;;55.17;;
26620;SDS011;14253;44.840;10.444;2022-12-29T04:40:51;156.30;;;56.10;;
26620;SDS011;14253;44.840;10.444;2022-12-29T04:43:19;150.00;;;56.88;;
26620;SDS011;14253;44.840;10.444;2022-12-29T04:46:06;157.63;;;60.05;;
26620;SDS011;14253;44.840;10.444;2022-12-29T04:48:41;141.80;;;54.50;;
26620;SDS011;14253;44.840;10.444;2022-12-29T04:51:24;153.65;;;55.42;;
26620;SDS011;14253;44.840;10.444;2022-12-29T04:53:50;155.77;;;57.88;;
26620;SDS011;14253;44.840;10.444;2022-12-29T04:56:16;147.77;;;56.67;;
26620;SDS011;14253;44.840;10.444;2022-12-29T04:58:42;134.10;;;55.10;;
26620;SDS011;14253;44.840;10.444;2022-12-29T05:01:08;156.13;;;57.40;;
26620;SDS011;14253;44.840;10.444;2022-12-29T05:03:34;167.15;;;59.03;;
26620;SDS011;14253;44.840;10.444;2022-12-29T05:06:00;150.25;;;55.75;;
26620;SDS011;14253;44.840;10.444;2022-12-29T05:08:26;134.85;;;55.22;;
26620;SDS011;14253;44.840;10.444;2022-12-29T05:10:52;144.35;;;55.38;;
26620;SDS011;14253;44.840;10.444;2022-12-29T05:13:19;151.13;;;56.90;;
26620;SDS011;14253;44.840;10.444;2022-12-29T05:15:51;156.50;;;56.50;;
26620;SDS011;14253;44.840;10.444;2022-12-29T05:18:19;140.43;;;54.78;;
26620;SDS011;14253;44.840;10.444;2022-12-29T05:20:45;153.43;;;57.10;;
26620;SDS011;14253;44.840;10.444;2022-12-29T05:23:12;141.55;;;54.88;;
26620;SDS011;14253;44.840;10.444;2022-12-29T05:25:39;140.27;;;53.97;;
26620;SDS011;14253;44.840;10.444;2022-12-29T05:28:31;132.20;;;52.17;;
26620;SDS011;14253;44.840;10.444;2022-12-29T05:31:03;144.68;;;53.63;;
26620;SDS011;14253;44.840;10.444;2022-12-29T05:33:29;150.15;;;55.78;;
26620;SDS011;14253;44.840;10.444;2022-12-29T05:35:56;125.75;;;50.67;;
26620;SDS011;14253;44.840;10.444;2022-12-29T05:40:54;136.85;;;53.38;;
26620;SDS011;14253;44.840;10.444;2022-12-29T05:43:40;145.82;;;53.08;;
26620;SDS011;14253;44.840;10.444;2022-12-29T05:46:13;165.65;;;57.95;;
26620;SDS011;14253;44.840;10.444;2022-12-29T05:48:56;150.27;;;53.63;;
26620;SDS011;14253;44.840;10.444;2022-12-29T05:51:28;154.60;;;56.03;;
26620;SDS011;14253;44.840;10.444;2022-12-29T05:53:54;157.80;;;55.88;;
26620;SDS011;14253;44.840;10.444;2022-12-29T05:56:21;136.63;;;52.95;;
26620;SDS011;14253;44.840;10.444;2022-12-29T05:58:53;149.63;;;56.58;;
26620;SDS011;14253;44.840;10.444;2022-12-29T06:01:20;151.48;;;55.05;;
26620;SDS011;14253;44.840;10.444;2022-12-29T06:03:46;149.70;;;57.38;;
26620;SDS011;14253;44.840;10.444;2022-12-29T06:06:12;149.15;;;56.53;;
26620;SDS011;14253;44.840;10.444;2022-12-29T06:08:39;146.88;;;56.13;;
26620;SDS011;14253;44.840;10.444;2022-12-29T06:11:04;140.85;;;53.78;;
26620;SDS011;14253;44.840;10.444;2022-12-29T06:13:32;148.65;;;53.15;;
26620;SDS011;14253;44.840;10.444;2022-12-29T06:15:58;140.55;;;54.38;;
26620;SDS011;14253;44.840;10.444;2022-12-29T06:18:26;138.68;;;53.25;;
26620;SDS011;14253;44.840;10.444;2022-12-29T06:20:51;134.60;;;52.50;;
26620;SDS011;14253;44.840;10.444;2022-12-29T06:23:18;135.77;;;52.78;;
26620;SDS011;14253;44.840;10.444;2022-12-29T06:25:44;166.00;;;55.85;;
26620;SDS011;14253;44.840;10.444;2022-12-29T06:28:12;125.78;;;50.13;;
26620;SDS011;14253;44.840;10.444;2022-12-29T06:30:38;131.40;;;50.33;;
26620;SDS011;14253;44.840;10.444;2022-12-29T06:33:04;139.43;;;52.42;;
26620;SDS011;14253;44.840;10.444;2022-12-29T06:35:30;131.27;;;53.88;;
26620;SDS011;14253;44.840;10.444;2022-12-29T06:37:56;143.18;;;54.33;;
26620;SDS011;14253;44.840;10.444;2022-12-29T06:40:21;141.95;;;52.97;;
26620;SDS011;14253;44.840;10.444;2022-12-29T06:43:00;150.23;;;54.00;;
26620;SDS011;14253;44.840;10.444;2022-12-29T06:45:58;146.43;;;53.67;;
26620;SDS011;14253;44.840;10.444;2022-12-29T06:48:24;145.00;;;55.30;;
26620;SDS011;14253;44.840;10.444;2022-12-29T06:50:50;135.82;;;53.60;;
26620;SDS011;14253;44.840;10.444;2022-12-29T06:53:17;135.35;;;52.38;;
26620;SDS011;14253;44.840;10.444;2022-12-29T06:55:58;154.70;;;54.17;;
26620;SDS011;14253;44.840;10.444;2022-12-29T06:58:23;147.38;;;54.35;;
26620;SDS011;14253;44.840;10.444;2022-12-29T07:00:49;151.45;;;53.15;;
26620;SDS011;14253;44.840;10.444;2022-12-29T07:03:15;138.15;;;54.63;;
26620;SDS011;14253;44.840;10.444;2022-12-29T07:05:41;139.55;;;52.13;;
26620;SDS011;14253;44.840;10.444;2022-12-29T07:08:07;140.38;;;53.92;;
26620;SDS011;14253;44.840;10.444;2022-12-29T07:10:33;140.60;;;56.28;;
26620;SDS011;14253;44.840;10.444;2022-12-29T07:12:59;159.98;;;56.95;;
26620;SDS011;14253;44.840;10.444;2022-12-29T07:15:25;153.25;;;55.92;;
26620;SDS011;14253;44.840;10.444;2022-12-29T07:17:51;162.90;;;58.30;;
26620;SDS011;14253;44.840;10.444;2022-12-29T07:20:17;165.60;;;57.42;;
26620;SDS011;14253;44.840;10.444;2022-12-29T07:22:43;168.73;;;59.40;;
26620;SDS011;14253;44.840;10.444;2022-12-29T07:25:09;167.68;;;59.78;;
26620;SDS011;14253;44.840;10.444;2022-12-29T07:27:35;173.57;;;59.95;;
26620;SDS011;14253;44.840;10.444;2022-12-29T07:30:01;169.43;;;60.28;;
26620;SDS011;14253;44.840;10.444;2022-12-29T07:32:27;176.63;;;63.17;;
26620;SDS011;14253;44.840;10.444;2022-12-29T07:34:53;168.38;;;59.40;;
26620;SDS011;14253;44.840;10.444;2022-12-29T07:37:19;177.63;;;61.67;;
26620;SDS011;14253;44.840;10.444;2022-12-29T07:39:45;170.90;;;62.58;;
26620;SDS011;14253;44.840;10.444;2022-12-29T07:42:11;186.70;;;63.78;;
26620;SDS011;14253;44.840;10.444;2022-12-29T07:44:41;178.45;;;61.72;;
26620;SDS011;14253;44.840;10.444;2022-12-29T07:47:32;183.00;;;61.33;;
26620;SDS011;14253;44.840;10.444;2022-12-29T07:49:58;175.48;;;61.97;;
26620;SDS011;14253;44.840;10.444;2022-12-29T07:52:23;167.60;;;56.22;;
26620;SDS011;14253;44.840;10.444;2022-12-29T07:54:49;177.68;;;62.20;;
26620;SDS011;14253;44.840;10.444;2022-12-29T07:57:15;165.45;;;57.60;;
26620;SDS011;14253;44.840;10.444;2022-12-29T07:59:41;166.60;;;58.28;;
26620;SDS011;14253;44.840;10.444;2022-12-29T08:02:09;165.32;;;60.08;;
26620;SDS011;14253;44.840;10.444;2022-12-29T08:04:36;177.57;;;61.70;;
26620;SDS011;14253;44.840;10.444;2022-12-29T08:07:02;167.15;;;61.13;;
26620;SDS011;14253;44.840;10.444;2022-12-29T08:09:28;176.98;;;63.17;;
26620;SDS011;14253;44.840;10.444;2022-12-29T08:11:54;177.75;;;63.40;;
26620;SDS011;14253;44.840;10.444;2022-12-29T08:14:20;180.50;;;61.08;;
26620;SDS011;14253;44.840;10.444;2022-12-29T08:16:46;164.73;;;63.25;;
26620;SDS011;14253;44.840;10.444;2022-12-29T08:19:12;170.20;;;61.88;;
26620;SDS011;14253;44.840;10.444;2022-12-29T08:21:38;163.30;;;60.90;;
26620;SDS011;14253;44.840;10.444;2022-12-29T08:24:05;165.48;;;58.85;;
26620;SDS011;14253;44.840;10.444;2022-12-29T08:26:32;165.65;;;61.50;;
26620;SDS011;14253;44.840;10.444;2022-12-29T08:28:58;165.23;;;59.75;;
26620;SDS011;14253;44.840;10.444;2022-12-29T08:31:24;158.60;;;57.70;;
26620;SDS011;14253;44.840;10.444;2022-12-29T08:33:50;155.75;;;60.38;;
26620;SDS011;14253;44.840;10.444;2022-12-29T08:36:16;147.52;;;55.55;;
26620;SDS011;14253;44.840;10.444;2022-12-29T08:38:42;144.73;;;56.78;;
26620;SDS011;14253;44.840;10.444;2022-12-29T08:41:08;152.27;;;55.92;;
26620;SDS011;14253;44.840;10.444;2022-12-29T08:43:34;150.15;;;58.38;;
26620;SDS011;14253;44.840;10.444;2022-12-29T08:46:00;152.80;;;59.72;;
26620;SDS011;14253;44.840;10.444;2022-12-29T08:48:26;159.38;;;59.72;;
26620;SDS011;14253;44.840;10.444;2022-12-29T08:50:52;158.55;;;57.95;;
26620;SDS011;14253;44.840;10.444;2022-12-29T08:53:19;163.23;;;58.22;;
26620;SDS011;14253;44.840;10.444;2022-12-29T08:55:45;165.05;;;58.88;;
26620;SDS011;14253;44.840;10.444;2022-12-29T08:58:12;161.73;;;59.78;;
26620;SDS011;14253;44.840;10.444;2022-12-29T09:00:40;133.90;;;53.22;;
26620;SDS011;14253;44.840;10.444;2022-12-29T09:03:08;156.10;;;59.75;;
26620;SDS011;14253;44.840;10.444;2022-12-29T09:05:34;164.82;;;58.97;;
26620;SDS011;14253;44.840;10.444;2022-12-29T09:07:59;160.68;;;57.88;;
26620;SDS011;14253;44.840;10.444;2022-12-29T09:10:25;159.35;;;58.58;;
26620;SDS011;14253;44.840;10.444;2022-12-29T09:12:51;162.57;;;58.40;;
26620;SDS011;14253;44.840;10.444;2022-12-29T09:15:17;157.27;;;59.38;;
26620;SDS011;14253;44.840;10.444;2022-12-29T09:17:44;161.38;;;60.17;;
26620;SDS011;14253;44.840;10.444;2022-12-29T09:20:14;151.20;;;56.55;;
26620;SDS011;14253;44.840;10.444;2022-12-29T09:22:43;159.57;;;57.25;;
26620;SDS011;14253;44.840;10.444;2022-12-29T09:25:10;145.73;;;54.90;;
26620;SDS011;14253;44.840;10.444;2022-12-29T09:27:36;155.73;;;58.05;;
26620;SDS011;14253;44.840;10.444;2022-12-29T09:30:03;149.30;;;57.20;;
26620;SDS011;14253;44.840;10.444;2022-12-29T09:32:31;163.02;;;57.15;;
26620;SDS011;14253;44.840;10.444;2022-12-29T09:34:58;153.23;;;56.58;;
26620;SDS011;14253;44.840;10.444;2022-12-29T09:37:23;152.68;;;57.85;;
26620;SDS011;14253;44.840;10.444;2022-12-29T09:39:49;157.60;;;58.15;;
26620;SDS011;14253;44.840;10.444;2022-12-29T09:47:37;157.38;;;57.25;;
26620;SDS011;14253;44.840;10.444;2022-12-29T09:52:58;152.45;;;56.50;;
26620;SDS011;14253;44.840;10.444;2022-12-29T09:55:33;161.50;;;59.53;;
26620;SDS011;14253;44.840;10.444;2022-12-29T09:58:05;159.90;;;58.30;;
26620;SDS011;14253;44.840;10.444;2022-12-29T10:03:36;140.65;;;56.25;;
26620;SDS011;14253;44.840;10.444;2022-12-29T10:06:26;154.73;;;56.30;;
26620;SDS011;14253;44.840;10.444;2022-12-29T10:14:32;145.25;;;56.35;;
26620;SDS011;14253;44.840;10.444;2022-12-29T10:17:24;154.77;;;58.75;;
26620;SDS011;14253;44.840;10.444;2022-12-29T10:26:23;144.02;;;58.13;;
26620;SDS011;14253;44.840;10.444;2022-12-29T10:28:58;163.10;;;60.22;;
26620;SDS011;14253;44.840;10.444;2022-12-29T10:31:38;162.10;;;63.90;;
26620;SDS011;14253;44.840;10.444;2022-12-29T10:34:19;157.50;;;59.97;;
26620;SDS011;14253;44.840;10.444;2022-12-29T10:36:54;141.82;;;56.00;;
26620;SDS011;14253;44.840;10.444;2022-12-29T10:42:02;154.43;;;60.43;;
26620;SDS011;14253;44.840;10.444;2022-12-29T10:47:18;155.20;;;61.30;;
26620;SDS011;14253;44.840;10.444;2022-12-29T10:49:47;155.95;;;60.20;;
26620;SDS011;14253;44.840;10.444;2022-12-29T10:52:14;148.82;;;57.78;;
26620;SDS011;14253;44.840;10.444;2022-12-29T10:57:31;152.13;;;57.55;;
26620;SDS011;14253;44.840;10.444;2022-12-29T10:59:59;156.65;;;60.67;;
26620;SDS011;14253;44.840;10.444;2022-12-29T11:02:30;149.15;;;59.80;;
26620;SDS011;14253;44.840;10.444;2022-12-29T11:05:23;160.50;;;62.63;;
26620;SDS011;14253;44.840;10.444;2022-12-29T11:07:53;164.48;;;60.70;;
26620;SDS011;14253;44.840;10.444;2022-12-29T11:13:04;156.50;;;59.90;;
26620;SDS011;14253;44.840;10.444;2022-12-29T11:15:43;140.95;;;57.05;;
26620;SDS011;14253;44.840;10.444;2022-12-29T11:21:00;140.75;;;57.88;;
26620;SDS011;14253;44.840;10.444;2022-12-29T11:23:35;139.68;;;57.17;;
26620;SDS011;14253;44.840;10.444;2022-12-29T11:31:39;141.43;;;55.80;;
26620;SDS011;14253;44.840;10.444;2022-12-29T11:34:17;143.25;;;56.65;;
26620;SDS011;14253;44.840;10.444;2022-12-29T11:36:44;143.93;;;55.45;;
26620;SDS011;14253;44.840;10.444;2022-12-29T11:41:58;125.05;;;51.95;;
26620;SDS011;14253;44.840;10.444;2022-12-29T11:44:26;137.43;;;55.58;;
26620;SDS011;14253;44.840;10.444;2022-12-29T11:46:55;128.98;;;55.92;;
26620;SDS011;14253;44.840;10.444;2022-12-29T11:49:24;136.25;;;56.17;;
26620;SDS011;14253;44.840;10.444;2022-12-29T11:51:51;140.50;;;53.80;;
26620;SDS011;14253;44.840;10.444;2022-12-29T11:57:08;140.90;;;56.05;;
26620;SDS011;14253;44.840;10.444;2022-12-29T11:59:48;132.18;;;54.30;;
26620;SDS011;14253;44.840;10.444;2022-12-29T12:04:56;119.40;;;49.65;;
26620;SDS011;14253;44.840;10.444;2022-12-29T12:07:44;127.30;;;53.95;;
26620;SDS011;14253;44.840;10.444;2022-12-29T12:10:24;139.77;;;54.33;;
26620;SDS011;14253;44.840;10.444;2022-12-29T12:15:59;136.88;;;58.28;;
26620;SDS011;14253;44.840;10.444;2022-12-29T12:18:45;123.63;;;52.35;;
26620;SDS011;14253;44.840;10.444;2022-12-29T12:29:07;141.35;;;57.58;;
26620;SDS011;14253;44.840;10.444;2022-12-29T12:51:25;118.43;;;52.67;;
26620;SDS011;14253;44.840;10.444;2022-12-29T13:05:04;140.48;;;52.65;;
26620;SDS011;14253;44.840;10.444;2022-12-29T13:08:34;149.93;;;59.58;;
26620;SDS011;14253;44.840;10.444;2022-12-29T13:13:51;138.00;;;54.50;;
26620;SDS011;14253;44.840;10.444;2022-12-29T13:27:19;141.20;;;55.70;;
26620;SDS011;14253;44.840;10.444;2022-12-29T13:40:40;144.43;;;57.22;;
26620;SDS011;14253;44.840;10.444;2022-12-29T13:43:10;150.02;;;58.47;;
26620;SDS011;14253;44.840;10.444;2022-12-29T13:45:38;138.32;;;54.35;;
26620;SDS011;14253;44.840;10.444;2022-12-29T13:48:17;116.68;;;48.33;;
26620;SDS011;14253;44.840;10.444;2022-12-29T13:50:53;126.47;;;52.40;;
26620;SDS011;14253;44.840;10.444;2022-12-29T13:59:21;130.53;;;50.83;;
26620;SDS011;14253;44.840;10.444;2022-12-29T14:04:25;115.75;;;49.13;;
26620;SDS011;14253;44.840;10.444;2022-12-29T14:07:35;115.90;;;45.83;;
26620;SDS011;14253;44.840;10.444;2022-12-29T14:15:02;120.55;;;50.33;;
26620;SDS011;14253;44.840;10.444;2022-12-29T14:18:02;118.60;;;48.83;;
26620;SDS011;14253;44.840;10.444;2022-12-29T14:25:55;114.53;;;47.63;;
26620;SDS011;14253;44.840;10.444;2022-12-29T14:28:39;115.30;;;47.60;;
26620;SDS011;14253;44.840;10.444;2022-12-29T14:36:41;122.20;;;49.47;;
26620;SDS011;14253;44.840;10.444;2022-12-29T14:42:12;127.20;;;50.88;;
26620;SDS011;14253;44.840;10.444;2022-12-29T14:44:49;127.07;;;50.42;;
26620;SDS011;14253;44.840;10.444;2022-12-29T14:58:03;120.93;;;48.00;;
26620;SDS011;14253;44.840;10.444;2022-12-29T15:00:33;128.75;;;53.35;;
26620;SDS011;14253;44.840;10.444;2022-12-29T15:06:11;144.43;;;54.63;;
26620;SDS011;14253;44.840;10.444;2022-12-29T15:17:27;137.52;;;51.58;;
26620;SDS011;14253;44.840;10.444;2022-12-29T15:19:53;145.80;;;59.63;;
26620;SDS011;14253;44.840;10.444;2022-12-29T15:22:20;151.15;;;58.63;;
26620;SDS011;14253;44.840;10.444;2022-12-29T15:24:46;145.63;;;55.08;;
26620;SDS011;14253;44.840;10.444;2022-12-29T15:27:15;139.20;;;54.40;;
26620;SDS011;14253;44.840;10.444;2022-12-29T15:29:45;141.10;;;52.90;;
26620;SDS011;14253;44.840;10.444;2022-12-29T15:34:40;150.52;;;58.78;;
26620;SDS011;14253;44.840;10.444;2022-12-29T15:37:07;144.30;;;57.45;;
26620;SDS011;14253;44.840;10.444;2022-12-29T15:39:33;144.98;;;56.63;;
26620;SDS011;14253;44.840;10.444;2022-12-29T15:42:04;138.32;;;53.58;;
26620;SDS011;14253;44.840;10.444;2022-12-29T15:44:42;141.40;;;53.92;;
26620;SDS011;14253;44.840;10.444;2022-12-29T15:49:42;126.88;;;50.60;;
26620;SDS011;14253;44.840;10.444;2022-12-29T15:52:28;127.78;;;50.92;;
26620;SDS011;14253;44.840;10.444;2022-12-29T15:54:57;149.63;;;55.90;;
26620;SDS011;14253;44.840;10.444;2022-12-29T15:57:26;143.27;;;54.70;;
26620;SDS011;14253;44.840;10.444;2022-12-29T16:00:01;139.85;;;53.17;;
26620;SDS011;14253;44.840;10.444;2022-12-29T16:02:37;150.10;;;56.45;;
26620;SDS011;14253;44.840;10.444;2022-12-29T16:05:08;145.10;;;56.13;;
26620;SDS011;14253;44.840;10.444;2022-12-29T16:07:34;135.40;;;51.03;;
26620;SDS011;14253;44.840;10.444;2022-12-29T16:10:01;128.90;;;51.90;;
26620;SDS011;14253;44.840;10.444;2022-12-29T16:12:36;135.30;;;52.97;;
26620;SDS011;14253;44.840;10.444;2022-12-29T16:15:06;131.65;;;50.88;;
26620;SDS011;14253;44.840;10.444;2022-12-29T16:17:45;131.93;;;48.72;;
26620;SDS011;14253;44.840;10.444;2022-12-29T16:20:17;128.98;;;48.45;;
26620;SDS011;14253;44.840;10.444;2022-12-29T16:22:49;129.73;;;50.20;;
26620;SDS011;14253;44.840;10.444;2022-12-29T16:25:25;123.75;;;48.17;;
26620;SDS011;14253;44.840;10.444;2022-12-29T16:27:57;119.78;;;46.17;;
26620;SDS011;14253;44.840;10.444;2022-12-29T16:30:28;122.72;;;48.00;;
26620;SDS011;14253;44.840;10.444;2022-12-29T16:32:57;108.07;;;44.15;;
26620;SDS011;14253;44.840;10.444;2022-12-29T16:35:44;126.03;;;47.05;;
26620;SDS011;14253;44.840;10.444;2022-12-29T16:43:37;103.47;;;42.67;;
26620;SDS011;14253;44.840;10.444;2022-12-29T16:46:28;96.83;;;39.50;;
26620;SDS011;14253;44.840;10.444;2022-12-29T16:48:55;110.40;;;43.65;;
26620;SDS011;14253;44.840;10.444;2022-12-29T16:51:32;108.18;;;41.95;;
26620;SDS011;14253;44.840;10.444;2022-12-29T16:54:02;117.15;;;44.33;;
26620;SDS011;14253;44.840;10.444;2022-12-29T16:56:30;139.00;;;63.88;;
26620;SDS011;14253;44.840;10.444;2022-12-29T17:01:30;98.13;;;38.07;;
26620;SDS011;14253;44.840;10.444;2022-12-29T17:04:00;93.55;;;36.15;;
26620;SDS011;14253;44.840;10.444;2022-12-29T17:06:31;88.82;;;39.17;;
26620;SDS011;14253;44.840;10.444;2022-12-29T17:08:57;93.43;;;39.95;;
26620;SDS011;14253;44.840;10.444;2022-12-29T17:14:23;88.15;;;37.22;;
26620;SDS011;14253;44.840;10.444;2022-12-29T17:16:51;87.20;;;34.45;;
26620;SDS011;14253;44.840;10.444;2022-12-29T17:19:18;88.30;;;35.55;;
26620;SDS011;14253;44.840;10.444;2022-12-29T17:21:46;87.50;;;36.50;;
26620;SDS011;14253;44.840;10.444;2022-12-29T17:24:14;132.82;;;63.88;;
26620;SDS011;14253;44.840;10.444;2022-12-29T17:26:42;116.05;;;51.45;;
26620;SDS011;14253;44.840;10.444;2022-12-29T17:29:21;121.32;;;51.05;;
26620;SDS011;14253;44.840;10.444;2022-12-29T17:32:00;120.00;;;47.25;;
26620;SDS011;14253;44.840;10.444;2022-12-29T17:34:27;127.05;;;48.72;;
26620;SDS011;14253;44.840;10.444;2022-12-29T17:36:53;122.43;;;49.13;;
26620;SDS011;14253;44.840;10.444;2022-12-29T17:39:19;110.40;;;43.33;;
26620;SDS011;14253;44.840;10.444;2022-12-29T17:41:45;104.85;;;43.13;;
26620;SDS011;14253;44.840;10.444;2022-12-29T17:44:15;99.22;;;42.08;;
26620;SDS011;14253;44.840;10.444;2022-12-29T17:46:43;109.22;;;45.35;;
26620;SDS011;14253;44.840;10.444;2022-12-29T17:49:14;105.35;;;43.35;;
26620;SDS011;14253;44.840;10.444;2022-12-29T17:51:42;111.35;;;46.10;;